sensor_id;sensor_type;location;lat;lon;timestamp;pressure;altitude;pressure_sealevel;temperature;humidity
8298;BME280;4187;42.778;23.242;2023-09-12T00:01:11;95470.00;;;13.72;100.00
8298;BME280;4187;42.778;23.242;2023-09-12T00:03:38;95465.38;;;13.74;100.00
8298;BME280;4187;42.778;23.242;2023-09-12T00:06:05;95469.47;;;13.69;100.00
8298;BME280;4187;42.778;23.242;2023-09-12T00:08:32;95474.44;;;13.64;100.00
8298;BME280;4187;42.778;23.242;2023-09-12T00:11:01;95466.13;;;13.59;100.00
8298;BME280;4187;42.778;23.242;2023-09-12T00:13:30;95472.09;;;13.61;100.00
8298;BME280;4187;42.778;23.242;2023-09-12T00:15:57;95475.72;;;13.60;100.00
8298;BME280;4187;42.778;23.242;2023-09-12T00:18:24;95470.94;;;13.63;100.00
8298;BME280;4187;42.778;23.242;2023-09-12T00:20:51;95480.09;;;13.69;100.00
8298;BME280;4187;42.778;23.242;2023-09-12T00:23:20;95479.06;;;13.62;100.00
8298;BME280;4187;42.778;23.242;2023-09-12T00:25:49;95475.59;;;13.61;100.00
8298;BME280;4187;42.778;23.242;2023-09-12T00:28:16;95471.88;;;13.54;100.00
8298;BME280;4187;42.778;23.242;2023-09-12T00:30:44;95460.75;;;13.43;100.00
8298;BME280;4187;42.778;23.242;2023-09-12T00:33:11;95485.47;;;13.51;100.00
8298;BME280;4187;42.778;23.242;2023-09-12T00:35:38;95480.53;;;13.56;100.00
8298;BME280;4187;42.778;23.242;2023-09-12T00:38:05;95486.47;;;13.50;100.00
8298;BME280;4187;42.778;23.242;2023-09-12T00:40:32;95481.69;;;13.54;100.00
8298;BME280;4187;42.778;23.242;2023-09-12T00:42:59;95488.13;;;13.51;100.00
8298;BME280;4187;42.778;23.242;2023-09-12T00:45:26;95486.25;;;13.44;100.00
8298;BME280;4187;42.778;23.242;2023-09-12T00:47:58;95485.88;;;13.39;100.00
8298;BME280;4187;42.778;23.242;2023-09-12T00:50:25;95494.69;;;13.39;100.00
8298;BME280;4187;42.778;23.242;2023-09-12T00:52:53;95485.34;;;13.27;100.00
8298;BME280;4187;42.778;23.242;2023-09-12T00:55:21;95493.53;;;13.16;100.00
8298;BME280;4187;42.778;23.242;2023-09-12T00:57:48;95489.84;;;13.09;100.00
8298;BME280;4187;42.778;23.242;2023-09-12T01:00:16;95498.22;;;13.04;100.00
8298;BME280;4187;42.778;23.242;2023-09-12T01:02:44;95490.03;;;12.98;100.00
8298;BME280;4187;42.778;23.242;2023-09-12T01:05:14;95502.16;;;13.00;100.00
8298;BME280;4187;42.778;23.242;2023-09-12T01:07:43;95506.88;;;12.89;100.00
8298;BME280;4187;42.778;23.242;2023-09-12T01:10:10;95511.94;;;12.82;100.00
8298;BME280;4187;42.778;23.242;2023-09-12T01:12:37;95517.34;;;12.73;100.00
8298;BME280;4187;42.778;23.242;2023-09-12T01:15:04;95505.16;;;12.62;100.00
8298;BME280;4187;42.778;23.242;2023-09-12T01:17:39;95501.44;;;12.55;100.00
8298;BME280;4187;42.778;23.242;2023-09-12T01:20:08;95512.19;;;12.53;100.00
8298;BME280;4187;42.778;23.242;2023-09-12T01:22:56;95510.81;;;12.49;100.00
8298;BME280;4187;42.778;23.242;2023-09-12T01:25:42;95505.69;;;12.48;100.00
8298;BME280;4187;42.778;23.242;2023-09-12T01:28:13;95509.69;;;12.52;100.00
8298;BME280;4187;42.778;23.242;2023-09-12T01:30:42;95514.38;;;12.58;100.00
8298;BME280;4187;42.778;23.242;2023-09-12T01:33:09;95509.53;;;12.53;100.00
8298;BME280;4187;42.778;23.242;2023-09-12T01:35:36;95504.75;;;12.57;100.00
8298;BME280;4187;42.778;23.242;2023-09-12T01:38:03;95497.81;;;12.56;100.00
8298;BME280;4187;42.778;23.242;2023-09-12T01:40:34;95509.25;;;12.56;100.00
8298;BME280;4187;42.778;23.242;2023-09-12T01:43:04;95501.31;;;12.56;100.00
8298;BME280;4187;42.778;23.242;2023-09-12T01:45:35;95501.97;;;12.58;100.00
8298;BME280;4187;42.778;23.242;2023-09-12T01:48:04;95501.44;;;12.55;100.00
8298;BME280;4187;42.778;23.242;2023-09-12T01:50:32;95501.06;;;12.50;100.00
8298;BME280;4187;42.778;23.242;2023-09-12T01:53:00;95495.78;;;12.50;100.00
8298;BME280;4187;42.778;23.242;2023-09-12T01:55:27;95496.00;;;12.39;100.00
8298;BME280;4187;42.778;23.242;2023-09-12T01:57:54;95492.03;;;12.25;100.00
8298;BME280;4187;42.778;23.242;2023-09-12T02:00:22;95504.38;;;11.89;100.00
8298;BME280;4187;42.778;23.242;2023-09-12T02:02:50;95493.25;;;11.49;100.00
8298;BME280;4187;42.778;23.242;2023-09-12T02:05:19;95512.09;;;11.36;100.00
8298;BME280;4187;42.778;23.242;2023-09-12T02:07:46;95522.25;;;11.22;100.00
8298;BME280;4187;42.778;23.242;2023-09-12T02:10:13;95518.81;;;11.12;100.00
8298;BME280;4187;42.778;23.242;2023-09-12T02:12:41;95514.28;;;10.95;100.00
8298;BME280;4187;42.778;23.242;2023-09-12T02:15:08;95514.00;;;10.88;100.00
8298;BME280;4187;42.778;23.242;2023-09-12T02:17:35;95512.59;;;10.94;100.00
8298;BME280;4187;42.778;23.242;2023-09-12T02:20:07;95509.81;;;10.95;100.00
8298;BME280;4187;42.778;23.242;2023-09-12T02:22:34;95497.72;;;10.93;100.00
8298;BME280;4187;42.778;23.242;2023-09-12T02:25:01;95498.44;;;10.95;100.00
8298;BME280;4187;42.778;23.242;2023-09-12T02:27:28;95511.78;;;10.93;100.00
8298;BME280;4187;42.778;23.242;2023-09-12T02:29:55;95508.41;;;11.01;100.00
8298;BME280;4187;42.778;23.242;2023-09-12T02:32:22;95513.97;;;11.07;100.00
8298;BME280;4187;42.778;23.242;2023-09-12T02:34:49;95515.91;;;11.15;100.00
8298;BME280;4187;42.778;23.242;2023-09-12T02:37:17;95515.34;;;11.21;100.00
8298;BME280;4187;42.778;23.242;2023-09-12T02:39:44;95514.06;;;11.25;100.00
8298;BME280;4187;42.778;23.242;2023-09-12T02:42:11;95516.28;;;11.29;100.00
8298;BME280;4187;42.778;23.242;2023-09-12T02:44:37;95524.91;;;11.31;100.00
8298;BME280;4187;42.778;23.242;2023-09-12T02:47:05;95524.75;;;11.33;100.00
8298;BME280;4187;42.778;23.242;2023-09-12T02:49:31;95521.47;;;11.21;100.00
8298;BME280;4187;42.778;23.242;2023-09-12T02:51:58;95517.13;;;11.20;100.00
8298;BME280;4187;42.778;23.242;2023-09-12T02:54:26;95524.22;;;11.20;100.00
8298;BME280;4187;42.778;23.242;2023-09-12T02:56:53;95519.50;;;11.23;100.00
8298;BME280;4187;42.778;23.242;2023-09-12T02:59:20;95532.38;;;11.36;100.00
8298;BME280;4187;42.778;23.242;2023-09-12T03:01:47;95523.22;;;11.40;100.00
8298;BME280;4187;42.778;23.242;2023-09-12T03:04:13;95523.50;;;11.83;100.00
8298;BME280;4187;42.778;23.242;2023-09-12T03:06:40;95519.91;;;12.02;100.00
8298;BME280;4187;42.778;23.242;2023-09-12T03:09:07;95520.88;;;12.01;100.00
8298;BME280;4187;42.778;23.242;2023-09-12T03:11:35;95525.34;;;12.00;100.00
8298;BME280;4187;42.778;23.242;2023-09-12T03:14:02;95524.06;;;12.05;100.00
8298;BME280;4187;42.778;23.242;2023-09-12T03:16:29;95521.78;;;11.92;100.00
8298;BME280;4187;42.778;23.242;2023-09-12T03:18:56;95527.50;;;11.87;100.00
8298;BME280;4187;42.778;23.242;2023-09-12T03:21:23;95515.88;;;11.71;100.00
8298;BME280;4187;42.778;23.242;2023-09-12T03:23:50;95533.53;;;11.80;100.00
8298;BME280;4187;42.778;23.242;2023-09-12T03:26:16;95537.84;;;11.81;100.00
8298;BME280;4187;42.778;23.242;2023-09-12T03:28:45;95535.88;;;11.83;100.00
8298;BME280;4187;42.778;23.242;2023-09-12T03:31:13;95537.84;;;11.81;100.00
8298;BME280;4187;42.778;23.242;2023-09-12T03:33:40;95533.78;;;11.86;100.00
8298;BME280;4187;42.778;23.242;2023-09-12T03:36:08;95534.75;;;11.85;100.00
8298;BME280;4187;42.778;23.242;2023-09-12T03:38:35;95532.69;;;11.79;100.00
8298;BME280;4187;42.778;23.242;2023-09-12T03:41:02;95538.25;;;11.76;100.00
8298;BME280;4187;42.778;23.242;2023-09-12T03:43:29;95539.53;;;11.72;100.00
8298;BME280;4187;42.778;23.242;2023-09-12T03:45:58;95539.25;;;11.75;100.00
8298;BME280;4187;42.778;23.242;2023-09-12T03:48:24;95533.53;;;11.80;100.00
8298;BME280;4187;42.778;23.242;2023-09-12T03:50:51;95538.97;;;11.78;100.00
8298;BME280;4187;42.778;23.242;2023-09-12T03:53:18;95539.94;;;11.77;100.00
8298;BME280;4187;42.778;23.242;2023-09-12T03:55:45;95541.34;;;11.72;100.00
8298;BME280;4187;42.778;23.242;2023-09-12T03:58:12;95539.69;;;11.61;100.00
8298;BME280;4187;42.778;23.242;2023-09-12T04:00:39;95529.97;;;11.52;100.00
8298;BME280;4187;42.778;23.242;2023-09-12T04:03:07;95536.72;;;11.37;100.00
8298;BME280;4187;42.778;23.242;2023-09-12T04:05:34;95532.00;;;11.31;100.00
8298;BME280;4187;42.778;23.242;2023-09-12T04:08:01;95536.75;;;11.18;100.00
8298;BME280;4187;42.778;23.242;2023-09-12T04:10:28;95538.19;;;11.03;100.00
8298;BME280;4187;42.778;23.242;2023-09-12T04:12:55;95539.81;;;11.04;100.00
8298;BME280;4187;42.778;23.242;2023-09-12T04:15:21;95528.25;;;11.24;100.00
8298;BME280;4187;42.778;23.242;2023-09-12T04:17:48;95536.72;;;11.83;100.00
8298;BME280;4187;42.778;23.242;2023-09-12T04:20:17;95524.69;;;12.43;100.00
8298;BME280;4187;42.778;23.242;2023-09-12T04:22:44;95534.50;;;12.69;100.00
8298;BME280;4187;42.778;23.242;2023-09-12T04:25:10;95552.22;;;12.86;100.00
8298;BME280;4187;42.778;23.242;2023-09-12T04:27:37;95556.34;;;12.53;100.00
8298;BME280;4187;42.778;23.242;2023-09-12T04:30:05;95554.59;;;12.26;100.00
8298;BME280;4187;42.778;23.242;2023-09-12T04:32:32;95555.34;;;12.19;100.00
8298;BME280;4187;42.778;23.242;2023-09-12T04:34:59;95554.97;;;12.31;100.00
8298;BME280;4187;42.778;23.242;2023-09-12T04:37:27;95543.72;;;12.82;100.00
8298;BME280;4187;42.778;23.242;2023-09-12T04:39:54;95569.25;;;13.18;100.00
8298;BME280;4187;42.778;23.242;2023-09-12T04:42:21;95567.63;;;13.43;100.00
8298;BME280;4187;42.778;23.242;2023-09-12T04:44:48;95563.16;;;13.69;100.00
8298;BME280;4187;42.778;23.242;2023-09-12T04:47:15;95576.53;;;13.94;100.00
8298;BME280;4187;42.778;23.242;2023-09-12T04:49:44;95571.53;;;14.16;100.00
8298;BME280;4187;42.778;23.242;2023-09-12T04:52:11;95575.25;;;14.31;100.00
8298;BME280;4187;42.778;23.242;2023-09-12T04:54:39;95572.50;;;14.57;100.00
8298;BME280;4187;42.778;23.242;2023-09-12T04:57:07;95570.41;;;14.77;100.00
8298;BME280;4187;42.778;23.242;2023-09-12T04:59:33;95574.09;;;14.84;100.00
8298;BME280;4187;42.778;23.242;2023-09-12T05:02:00;95578.91;;;15.05;100.00
8298;BME280;4187;42.778;23.242;2023-09-12T05:04:28;95586.72;;;15.14;100.00
8298;BME280;4187;42.778;23.242;2023-09-12T05:06:54;95582.09;;;15.24;100.00
8298;BME280;4187;42.778;23.242;2023-09-12T05:09:21;95563.47;;;15.24;100.00
8298;BME280;4187;42.778;23.242;2023-09-12T05:11:49;95579.75;;;15.29;100.00
8298;BME280;4187;42.778;23.242;2023-09-12T05:14:16;95582.91;;;15.33;100.00
8298;BME280;4187;42.778;23.242;2023-09-12T05:16:43;95584.75;;;15.32;100.00
8298;BME280;4187;42.778;23.242;2023-09-12T05:19:10;95587.56;;;15.31;100.00
8298;BME280;4187;42.778;23.242;2023-09-12T05:21:36;95586.41;;;15.25;100.00
8298;BME280;4187;42.778;23.242;2023-09-12T05:24:04;95588.91;;;15.27;100.00
8298;BME280;4187;42.778;23.242;2023-09-12T05:26:30;95590.41;;;15.29;100.00
8298;BME280;4187;42.778;23.242;2023-09-12T05:28:58;95593.72;;;15.39;100.00
8298;BME280;4187;42.778;23.242;2023-09-12T05:31:25;95589.91;;;15.50;100.00
8298;BME280;4187;42.778;23.242;2023-09-12T05:33:52;95581.41;;;15.63;100.00
8298;BME280;4187;42.778;23.242;2023-09-12T05:36:18;95591.03;;;15.88;100.00
8298;BME280;4187;42.778;23.242;2023-09-12T05:38:45;95587.50;;;16.03;100.00
8298;BME280;4187;42.778;23.242;2023-09-12T05:41:12;95589.94;;;16.21;100.00
8298;BME280;4187;42.778;23.242;2023-09-12T05:43:39;95587.56;;;16.34;100.00
8298;BME280;4187;42.778;23.242;2023-09-12T05:46:07;95595.69;;;16.49;100.00
8298;BME280;4187;42.778;23.242;2023-09-12T05:48:34;95587.50;;;16.58;100.00
8298;BME280;4187;42.778;23.242;2023-09-12T05:51:01;95597.19;;;16.82;100.00
8298;BME280;4187;42.778;23.242;2023-09-12T05:53:27;95592.00;;;16.89;100.00
8298;BME280;4187;42.778;23.242;2023-09-12T05:55:54;95600.91;;;17.04;100.00
8298;BME280;4187;42.778;23.242;2023-09-12T05:58:21;95601.75;;;17.27;100.00
8298;BME280;4187;42.778;23.242;2023-09-12T06:00:48;95599.19;;;17.33;100.00
8298;BME280;4187;42.778;23.242;2023-09-12T06:03:16;95602.56;;;17.50;100.00
8298;BME280;4187;42.778;23.242;2023-09-12T06:05:43;95606.50;;;17.62;100.00
8298;BME280;4187;42.778;23.242;2023-09-12T06:08:10;95595.56;;;17.72;100.00
8298;BME280;4187;42.778;23.242;2023-09-12T06:10:36;95609.53;;;17.97;100.00
8298;BME280;4187;42.778;23.242;2023-09-12T06:13:03;95597.19;;;18.10;100.00
8298;BME280;4187;42.778;23.242;2023-09-12T06:15:30;95612.13;;;18.34;98.38
8298;BME280;4187;42.778;23.242;2023-09-12T06:17:57;95623.13;;;18.54;97.59
8298;BME280;4187;42.778;23.242;2023-09-12T06:20:25;95620.44;;;18.68;94.98
8298;BME280;4187;42.778;23.242;2023-09-12T06:22:52;95627.16;;;18.79;95.09
8298;BME280;4187;42.778;23.242;2023-09-12T06:25:19;95624.44;;;18.93;94.96
8298;BME280;4187;42.778;23.242;2023-09-12T06:27:46;95627.75;;;19.10;94.82
8298;BME280;4187;42.778;23.242;2023-09-12T06:30:13;95627.88;;;19.23;95.18
8298;BME280;4187;42.778;23.242;2023-09-12T06:32:40;95633.34;;;19.51;93.84
8298;BME280;4187;42.778;23.242;2023-09-12T06:35:07;95633.94;;;19.67;93.28
8298;BME280;4187;42.778;23.242;2023-09-12T06:37:37;95631.03;;;19.90;91.69
8298;BME280;4187;42.778;23.242;2023-09-12T06:40:05;95633.19;;;20.01;90.75
8298;BME280;4187;42.778;23.242;2023-09-12T06:42:32;95631.06;;;20.18;90.21
8298;BME280;4187;42.778;23.242;2023-09-12T06:44:59;95634.91;;;20.37;89.74
8298;BME280;4187;42.778;23.242;2023-09-12T06:47:26;95636.28;;;20.54;87.83
8298;BME280;4187;42.778;23.242;2023-09-12T06:49:53;95644.72;;;20.51;85.59
8298;BME280;4187;42.778;23.242;2023-09-12T06:52:19;95640.66;;;20.34;86.40
8298;BME280;4187;42.778;23.242;2023-09-12T06:54:48;95642.22;;;20.49;88.16
8298;BME280;4187;42.778;23.242;2023-09-12T06:57:14;95634.50;;;20.67;87.81
8298;BME280;4187;42.778;23.242;2023-09-12T06:59:41;95638.69;;;20.83;85.65
8298;BME280;4187;42.778;23.242;2023-09-12T07:02:08;95640.38;;;20.91;86.51
8298;BME280;4187;42.778;23.242;2023-09-12T07:04:36;95639.06;;;21.08;86.91
8298;BME280;4187;42.778;23.242;2023-09-12T07:07:03;95644.03;;;21.17;82.77
8298;BME280;4187;42.778;23.242;2023-09-12T07:09:30;95636.22;;;21.29;84.33
8298;BME280;4187;42.778;23.242;2023-09-12T07:11:58;95636.69;;;21.52;85.72
8298;BME280;4187;42.778;23.242;2023-09-12T07:14:25;95639.84;;;21.75;84.74
8298;BME280;4187;42.778;23.242;2023-09-12T07:16:52;95639.91;;;21.95;82.98
8298;BME280;4187;42.778;23.242;2023-09-12T07:19:19;95639.50;;;22.11;83.42
8298;BME280;4187;42.778;23.242;2023-09-12T07:21:46;95635.34;;;22.28;83.05
8298;BME280;4187;42.778;23.242;2023-09-12T07:24:13;95643.81;;;22.51;81.41
8298;BME280;4187;42.778;23.242;2023-09-12T07:26:39;95643.81;;;22.65;79.70
8298;BME280;4187;42.778;23.242;2023-09-12T07:29:08;95633.22;;;22.76;78.11
8298;BME280;4187;42.778;23.242;2023-09-12T07:31:34;95636.69;;;22.90;78.27
8298;BME280;4187;42.778;23.242;2023-09-12T07:34:02;95639.53;;;23.08;78.50
8298;BME280;4187;42.778;23.242;2023-09-12T07:36:29;95640.13;;;23.10;77.59
8298;BME280;4187;42.778;23.242;2023-09-12T07:38:55;95630.97;;;23.24;77.98
8298;BME280;4187;42.778;23.242;2023-09-12T07:41:22;95632.00;;;23.23;73.91
8298;BME280;4187;42.778;23.242;2023-09-12T07:43:49;95631.75;;;23.38;77.27
8298;BME280;4187;42.778;23.242;2023-09-12T07:46:17;95626.47;;;23.56;75.55
8298;BME280;4187;42.778;23.242;2023-09-12T07:48:44;95617.19;;;23.76;76.30
8298;BME280;4187;42.778;23.242;2023-09-12T07:51:12;95618.06;;;24.02;73.83
8298;BME280;4187;42.778;23.242;2023-09-12T07:53:40;95621.41;;;24.28;73.19
8298;BME280;4187;42.778;23.242;2023-09-12T07:56:08;95619.50;;;24.54;70.58
8298;BME280;4187;42.778;23.242;2023-09-12T07:58:35;95628.84;;;24.76;68.46
8298;BME280;4187;42.778;23.242;2023-09-12T08:01:05;95626.19;;;24.69;66.71
8298;BME280;4187;42.778;23.242;2023-09-12T08:03:34;95624.81;;;24.60;67.17
8298;BME280;4187;42.778;23.242;2023-09-12T08:06:01;95623.88;;;24.55;66.38
8298;BME280;4187;42.778;23.242;2023-09-12T08:08:28;95610.97;;;24.57;68.47
8298;BME280;4187;42.778;23.242;2023-09-12T08:10:55;95630.06;;;24.80;68.44
8298;BME280;4187;42.778;23.242;2023-09-12T08:13:25;95621.03;;;25.04;69.63
8298;BME280;4187;42.778;23.242;2023-09-12T08:15:53;95625.22;;;25.36;69.00
8298;BME280;4187;42.778;23.242;2023-09-12T08:18:19;95623.00;;;25.63;68.47
8298;BME280;4187;42.778;23.242;2023-09-12T08:20:48;95630.50;;;25.91;64.48
8298;BME280;4187;42.778;23.242;2023-09-12T08:23:14;95623.69;;;25.88;60.42
8298;BME280;4187;42.778;23.242;2023-09-12T08:25:41;95621.81;;;25.89;60.98
8298;BME280;4187;42.778;23.242;2023-09-12T08:28:08;95569.09;;;25.68;61.83
8298;BME280;4187;42.778;23.242;2023-09-12T08:30:35;95613.78;;;26.24;62.64
8298;BME280;4187;42.778;23.242;2023-09-12T08:33:02;95617.34;;;26.36;62.89
8298;BME280;4187;42.778;23.242;2023-09-12T08:35:29;95619.47;;;26.57;62.78
8298;BME280;4187;42.778;23.242;2023-09-12T08:37:57;95618.06;;;26.78;59.68
8298;BME280;4187;42.778;23.242;2023-09-12T08:40:24;95609.47;;;26.92;61.47
8298;BME280;4187;42.778;23.242;2023-09-12T08:42:52;95604.44;;;27.12;59.74
8298;BME280;4187;42.778;23.242;2023-09-12T08:45:19;95612.03;;;27.39;57.39
8298;BME280;4187;42.778;23.242;2023-09-12T08:47:49;95610.00;;;27.57;59.01
8298;BME280;4187;42.778;23.242;2023-09-12T08:50:17;95604.72;;;27.79;58.41
8298;BME280;4187;42.778;23.242;2023-09-12T08:52:45;95603.22;;;27.88;52.51
8298;BME280;4187;42.778;23.242;2023-09-12T08:55:14;95601.63;;;28.04;53.90
8298;BME280;4187;42.778;23.242;2023-09-12T08:57:42;95610.88;;;27.91;50.38
8298;BME280;4187;42.778;23.242;2023-09-12T09:00:11;95600.22;;;27.84;48.90
8298;BME280;4187;42.778;23.242;2023-09-12T09:02:39;95611.13;;;27.89;48.90
8298;BME280;4187;42.778;23.242;2023-09-12T09:05:07;95604.50;;;27.97;51.01
8298;BME280;4187;42.778;23.242;2023-09-12T09:07:35;95602.25;;;28.22;51.43
8298;BME280;4187;42.778;23.242;2023-09-12T09:10:03;95601.56;;;28.48;52.07
8298;BME280;4187;42.778;23.242;2023-09-12T09:12:33;95600.81;;;28.70;52.52
8298;BME280;4187;42.778;23.242;2023-09-12T09:15:21;95595.47;;;28.75;48.65
8298;BME280;4187;42.778;23.242;2023-09-12T09:17:49;95573.94;;;28.90;48.93
8298;BME280;4187;42.778;23.242;2023-09-12T09:20:26;95586.88;;;29.21;49.16
8298;BME280;4187;42.778;23.242;2023-09-12T09:23:01;95594.00;;;29.49;49.60
8298;BME280;4187;42.778;23.242;2023-09-12T09:25:31;95590.47;;;29.75;45.58
8298;BME280;4187;42.778;23.242;2023-09-12T09:28:02;95584.44;;;29.95;46.37
8298;BME280;4187;42.778;23.242;2023-09-12T09:30:41;95584.25;;;30.06;41.24
8298;BME280;4187;42.778;23.242;2023-09-12T09:33:07;95581.59;;;30.11;44.74
8298;BME280;4187;42.778;23.242;2023-09-12T09:35:34;95582.78;;;30.26;43.06
8298;BME280;4187;42.778;23.242;2023-09-12T09:38:01;95578.22;;;30.31;42.25
8298;BME280;4187;42.778;23.242;2023-09-12T09:40:29;95583.50;;;30.43;42.77
8298;BME280;4187;42.778;23.242;2023-09-12T09:42:57;95567.50;;;30.51;42.30
8298;BME280;4187;42.778;23.242;2023-09-12T09:45:26;95583.66;;;30.63;42.72
8298;BME280;4187;42.778;23.242;2023-09-12T09:47:56;95576.88;;;30.65;40.12
8298;BME280;4187;42.778;23.242;2023-09-12T09:50:23;95576.41;;;30.78;42.22
8298;BME280;4187;42.778;23.242;2023-09-12T09:52:54;95572.31;;;30.76;38.73
8298;BME280;4187;42.778;23.242;2023-09-12T09:55:22;95556.56;;;30.88;39.93
8298;BME280;4187;42.778;23.242;2023-09-12T09:57:49;95573.78;;;30.94;35.93
8298;BME280;4187;42.778;23.242;2023-09-12T10:00:19;95544.59;;;30.47;40.06
8298;BME280;4187;42.778;23.242;2023-09-12T10:02:49;95550.13;;;30.57;38.10
8298;BME280;4187;42.778;23.242;2023-09-12T10:05:16;95554.94;;;30.45;38.27
8298;BME280;4187;42.778;23.242;2023-09-12T10:07:47;95551.03;;;30.73;42.66
8298;BME280;4187;42.778;23.242;2023-09-12T10:10:14;95550.41;;;31.03;37.53
8298;BME280;4187;42.778;23.242;2023-09-12T10:12:48;95549.41;;;30.77;36.53
8298;BME280;4187;42.778;23.242;2023-09-12T10:15:18;95533.72;;;30.52;38.13
8298;BME280;4187;42.778;23.242;2023-09-12T10:17:51;95534.31;;;30.54;37.85
8298;BME280;4187;42.778;23.242;2023-09-12T10:20:22;95533.38;;;30.39;38.07
8298;BME280;4187;42.778;23.242;2023-09-12T10:22:57;95534.41;;;30.33;39.92
8298;BME280;4187;42.778;23.242;2023-09-12T10:25:28;95535.47;;;30.32;37.85
8298;BME280;4187;42.778;23.242;2023-09-12T10:27:55;95534.31;;;30.22;38.48
8298;BME280;4187;42.778;23.242;2023-09-12T10:30:22;95534.41;;;30.33;38.94
8298;BME280;4187;42.778;23.242;2023-09-12T10:32:51;95528.19;;;30.37;38.28
8298;BME280;4187;42.778;23.242;2023-09-12T10:35:19;95524.63;;;30.37;38.49
8298;BME280;4187;42.778;23.242;2023-09-12T10:37:46;95522.38;;;30.65;38.92
8298;BME280;4187;42.778;23.242;2023-09-12T10:40:16;95524.53;;;30.63;35.99
8298;BME280;4187;42.778;23.242;2023-09-12T10:42:44;95519.66;;;30.29;38.28
8298;BME280;4187;42.778;23.242;2023-09-12T10:45:12;95513.75;;;30.37;39.98
8298;BME280;4187;42.778;23.242;2023-09-12T10:47:39;95509.09;;;30.79;39.66
8298;BME280;4187;42.778;23.242;2023-09-12T10:50:08;95508.47;;;31.24;37.76
8298;BME280;4187;42.778;23.242;2023-09-12T10:52:36;95508.31;;;31.61;39.00
8298;BME280;4187;42.778;23.242;2023-09-12T10:55:06;95499.63;;;31.94;38.61
8298;BME280;4187;42.778;23.242;2023-09-12T10:57:33;95503.97;;;31.85;36.10
8298;BME280;4187;42.778;23.242;2023-09-12T11:00:11;95498.84;;;32.14;35.91
8298;BME280;4187;42.778;23.242;2023-09-12T11:02:39;95495.28;;;32.03;36.11
8298;BME280;4187;42.778;23.242;2023-09-12T11:05:35;95495.28;;;32.08;32.87
8298;BME280;4187;42.778;23.242;2023-09-12T11:08:02;95482.41;;;31.93;35.07
8298;BME280;4187;42.778;23.242;2023-09-12T11:10:30;95491.19;;;31.95;33.24
8298;BME280;4187;42.778;23.242;2023-09-12T11:12:58;95489.50;;;31.79;35.88
8298;BME280;4187;42.778;23.242;2023-09-12T11:15:27;95499.63;;;31.89;32.99
8298;BME280;4187;42.778;23.242;2023-09-12T11:18:02;95484.88;;;31.85;34.44
8298;BME280;4187;42.778;23.242;2023-09-12T11:20:59;95487.91;;;32.24;34.15
8298;BME280;4187;42.778;23.242;2023-09-12T11:23:28;95495.28;;;32.33;33.04
8298;BME280;4187;42.778;23.242;2023-09-12T11:26:04;95493.06;;;32.45;33.39
8298;BME280;4187;42.778;23.242;2023-09-12T11:28:36;95482.34;;;32.69;35.29
8298;BME280;4187;42.778;23.242;2023-09-12T11:31:04;95476.56;;;32.86;33.35
8298;BME280;4187;42.778;23.242;2023-09-12T11:33:32;95467.91;;;32.59;30.91
8298;BME280;4187;42.778;23.242;2023-09-12T11:36:01;95480.44;;;32.70;34.26
8298;BME280;4187;42.778;23.242;2023-09-12T11:38:31;95480.03;;;33.01;33.17
8298;BME280;4187;42.778;23.242;2023-09-12T11:40:58;95480.00;;;33.22;31.34
8298;BME280;4187;42.778;23.242;2023-09-12T11:43:27;95471.84;;;33.06;32.34
8298;BME280;4187;42.778;23.242;2023-09-12T11:45:55;95466.31;;;33.22;33.68
8298;BME280;4187;42.778;23.242;2023-09-12T11:48:22;95468.91;;;33.47;32.51
8298;BME280;4187;42.778;23.242;2023-09-12T11:50:51;95457.38;;;33.50;30.53
8298;BME280;4187;42.778;23.242;2023-09-12T11:53:21;95456.81;;;33.53;30.68
8298;BME280;4187;42.778;23.242;2023-09-12T11:55:52;95454.31;;;33.61;30.77
8298;BME280;4187;42.778;23.242;2023-09-12T11:58:20;95457.22;;;33.75;30.98
8298;BME280;4187;42.778;23.242;2023-09-12T12:00:49;95446.31;;;33.70;31.36
8298;BME280;4187;42.778;23.242;2023-09-12T12:03:17;95453.34;;;33.81;29.37
8298;BME280;4187;42.778;23.242;2023-09-12T12:05:45;95453.00;;;33.93;30.30
8298;BME280;4187;42.778;23.242;2023-09-12T12:08:13;95441.69;;;33.99;28.07
8298;BME280;4187;42.778;23.242;2023-09-12T12:10:41;95442.25;;;33.96;30.54
8298;BME280;4187;42.778;23.242;2023-09-12T12:13:11;95434.75;;;34.12;27.41
8298;BME280;4187;42.778;23.242;2023-09-12T12:15:38;95448.56;;;34.31;28.86
8298;BME280;4187;42.778;23.242;2023-09-12T12:18:05;95439.78;;;34.28;26.14
8298;BME280;4187;42.778;23.242;2023-09-12T12:20:32;95449.00;;;34.14;27.74
8298;BME280;4187;42.778;23.242;2023-09-12T12:22:59;95433.00;;;33.92;26.14
8298;BME280;4187;42.778;23.242;2023-09-12T12:25:26;95427.81;;;33.91;28.48
8298;BME280;4187;42.778;23.242;2023-09-12T12:27:54;95426.03;;;34.05;30.10
8298;BME280;4187;42.778;23.242;2023-09-12T12:30:21;95434.19;;;34.15;30.56
8298;BME280;4187;42.778;23.242;2023-09-12T12:32:48;95426.25;;;34.13;26.99
8298;BME280;4187;42.778;23.242;2023-09-12T12:35:19;95414.94;;;34.20;29.01
8298;BME280;4187;42.778;23.242;2023-09-12T12:37:48;95434.22;;;34.39;28.88
8298;BME280;4187;42.778;23.242;2023-09-12T12:40:16;95423.88;;;34.59;28.86
8298;BME280;4187;42.778;23.242;2023-09-12T12:42:44;95421.66;;;34.61;26.83
8298;BME280;4187;42.778;23.242;2023-09-12T12:45:15;95418.97;;;34.56;25.94
8298;BME280;4187;42.778;23.242;2023-09-12T12:47:42;95415.31;;;34.66;28.81
8298;BME280;4187;42.778;23.242;2023-09-12T12:50:11;95415.19;;;34.76;28.92
8298;BME280;4187;42.778;23.242;2023-09-12T12:52:38;95418.53;;;34.92;28.01
8298;BME280;4187;42.778;23.242;2023-09-12T12:55:06;95410.19;;;35.02;27.27
8298;BME280;4187;42.778;23.242;2023-09-12T12:57:36;95408.44;;;35.11;26.16
8298;BME280;4187;42.778;23.242;2023-09-12T13:00:06;95411.63;;;35.18;25.88
8298;BME280;4187;42.778;23.242;2023-09-12T13:02:35;95407.44;;;35.25;26.00
8298;BME280;4187;42.778;23.242;2023-09-12T13:05:02;95400.22;;;35.29;26.24
8298;BME280;4187;42.778;23.242;2023-09-12T13:07:28;95405.03;;;35.37;25.19
8298;BME280;4187;42.778;23.242;2023-09-12T13:09:55;95408.22;;;35.44;25.26